Time;durP1;ratioP1;P1;durP2;ratioP2;P2;SDS_P1;SDS_P2;PMS_P1;PMS_P2;Temp;Humidity;BMP_temperature;BMP_pressure;BME280_temperature;BME280_humidity;BME280_pressure;Samples;Min_cycle;Max_cycle;Signal;HPM_P1;HPM_P2
2021/09/06 00:00:34;;;;;;;;;;;;;;;10.41;61.42;100186.00;3313109;29;19935;-75
2021/09/06 00:02:14;;;;;;;;;;;;;;;10.40;61.42;100184.34;3311947;29;19929;-75
2021/09/06 00:03:55;;;;;;;;;;;;;;;10.40;61.35;100188.81;3313803;29;19952;-76
2021/09/06 00:05:36;;;;;;;;;;;;;;;10.41;61.47;100188.66;3313694;29;19929;-75
2021/09/06 00:07:17;;;;;;;;;;;;;;;10.43;61.29;100191.97;3313799;29;20347;-75
2021/09/06 00:08:57;;;;;;;;;;;;;;;10.43;61.30;100180.50;3313837;29;19972;-75
2021/09/06 00:10:41;;;;;;;;;;;;;;;10.43;61.30;100178.66;3313941;29;19986;-76
2021/09/06 00:12:22;;;;;;;;;;;;;;;10.42;61.32;100176.97;3311020;29;19964;-76
2021/09/06 00:14:02;;;;;;;;;;;;;;;10.44;61.20;100177.63;3313300;29;19952;-77
2021/09/06 00:15:43;;;;;;;;;;;;;;;10.46;61.34;100183.63;3313801;29;19954;-78
2021/09/06 00:17:23;;;;;;;;;;;;;;;10.45;61.31;100181.97;3312854;29;20461;-78
2021/09/06 00:19:04;;;;;;;;;;;;;;;10.44;61.31;100177.63;3313784;29;19929;-78
2021/09/06 00:20:45;;;;;;;;;;;;;;;10.44;61.17;100182.97;3313818;29;19929;-79
2021/09/06 00:22:26;;;;;;;;;;;;;;;10.46;61.34;100180.13;3311991;29;19976;-78
2021/09/06 00:24:06;;;;;;;;;;;;;;;10.47;61.08;100177.25;3313679;29;19935;-78
2021/09/06 00:25:47;;;;;;;;;;;;;;;10.46;61.06;100178.28;3313379;29;19977;-79
2021/09/06 00:27:27;;;;;;;;;;;;;;;10.47;61.16;100176.44;3313736;29;19936;-77
2021/09/06 00:29:22;;;;;;;;;;;;;;;10.45;61.05;100179.31;3313492;29;19932;-75
2021/09/06 00:31:03;;;;;;;;;;;;;;;10.44;61.16;100182.13;3313647;29;19982;-75
2021/09/06 00:32:43;;;;;;;;;;;;;;;10.43;61.04;100176.00;3311727;29;19978;-76
2021/09/06 00:34:24;;;;;;;;;;;;;;;10.44;61.07;100180.28;3312881;29;20001;-78
2021/09/06 00:36:18;;;;;;;;;;;;;;;10.44;61.13;100182.13;3313324;29;19929;-77
2021/09/06 00:37:59;;;;;;;;;;;;;;;10.40;61.34;100180.84;3312128;29;20016;-77
2021/09/06 00:39:39;;;;;;;;;;;;;;;10.36;61.31;100179.56;3325146;29;20337;-76
2021/09/06 00:41:20;;;;;;;;;;;;;;;10.35;61.32;100181.41;3315745;29;19929;-77
2021/09/06 00:43:01;;;;;;;;;;;;;;;10.35;61.39;100180.53;3323192;29;19935;-76
2021/09/06 00:44:41;;;;;;;;;;;;;;;10.34;61.21;100182.38;3324954;29;20419;-77
2021/09/06 00:46:23;;;;;;;;;;;;;;;10.35;61.21;100177.88;3316534;29;19957;-77
2021/09/06 00:48:04;;;;;;;;;;;;;;;10.36;61.18;100180.38;3313815;29;19932;-77
2021/09/06 00:49:45;;;;;;;;;;;;;;;10.37;61.08;100182.03;3313612;29;19933;-77
2021/09/06 00:51:25;;;;;;;;;;;;;;;10.37;61.11;100184.69;3312559;29;20336;-77
2021/09/06 00:53:06;;;;;;;;;;;;;;;10.37;61.09;100181.19;3310744;29;20338;-78
2021/09/06 00:54:47;;;;;;;;;;;;;;;10.35;61.15;100178.75;3313497;29;19936;-77
2021/09/06 00:56:29;;;;;;;;;;;;;;;10.33;61.07;100188.75;3325321;29;20021;-78
2021/09/06 00:58:11;;;;;;;;;;;;;;;10.32;61.04;100180.91;3315242;29;19960;-77
2021/09/06 00:59:53;;;;;;;;;;;;;;;10.31;61.13;100181.94;3313082;29;19929;-77
2021/09/06 01:01:34;;;;;;;;;;;;;;;10.30;61.15;100181.13;3313862;29;20385;-77
2021/09/06 01:03:16;;;;;;;;;;;;;;;10.28;60.99;100185.78;3311204;29;20027;-78
2021/09/06 01:04:57;;;;;;;;;;;;;;;10.25;61.11;100186.13;3309980;29;19929;-78
2021/09/06 01:07:05;;;;;;;;;;;;;;;10.22;61.11;100183.78;3324691;29;19932;-78
2021/09/06 01:09:08;;;;;;;;;;;;;;;10.20;61.18;100175.19;3312240;29;19929;-77
2021/09/06 01:11:08;;;;;;;;;;;;;;;10.19;61.16;100184.97;3313076;29;19929;-77
2021/09/06 01:13:24;;;;;;;;;;;;;;;10.18;61.12;100180.66;3320669;29;19929;-76
2021/09/06 01:15:05;;;;;;;;;;;;;;;10.20;61.11;100175.19;3311548;29;20020;-76
2021/09/06 01:16:50;;;;;;;;;;;;;;;10.20;61.10;100177.84;3322636;29;19951;-76
2021/09/06 01:18:31;;;;;;;;;;;;;;;10.20;61.01;100180.50;3314936;29;19929;-77
2021/09/06 01:20:14;;;;;;;;;;;;;;;10.16;61.27;100180.03;3311844;29;19929;-77
2021/09/06 01:22:01;;;;;;;;;;;;;;;10.16;61.09;100187.19;3312385;29;20400;-75
2021/09/06 01:24:05;;;;;;;;;;;;;;;10.16;60.88;100184.53;3308440;29;19936;-76
2021/09/06 01:25:49;;;;;;;;;;;;;;;10.15;60.95;100180.22;3309425;29;20346;-77
2021/09/06 01:27:32;;;;;;;;;;;;;;;10.14;60.80;100189.19;3308857;29;20201;-77
2021/09/06 01:29:13;;;;;;;;;;;;;;;10.13;60.95;100192.88;3322112;29;20308;-75
2021/09/06 01:30:54;;;;;;;;;;;;;;;10.11;60.92;100193.03;3307942;29;19933;-75
2021/09/06 01:32:34;;;;;;;;;;;;;;;10.11;60.86;100195.72;3300230;29;19936;-75
2021/09/06 01:34:15;;;;;;;;;;;;;;;10.10;61.05;100193.25;3300100;29;20448;-76
2021/09/06 01:35:56;;;;;;;;;;;;;;;10.09;60.83;100189.72;3297056;29;19936;-75
2021/09/06 01:37:37;;;;;;;;;;;;;;;10.09;60.85;100189.72;3309268;29;19929;-75
2021/09/06 01:39:17;;;;;;;;;;;;;;;10.09;60.99;100200.38;3302351;29;19936;-74
2021/09/06 01:40:58;;;;;;;;;;;;;;;10.10;60.83;100191.41;3299440;30;19929;-75
2021/09/06 01:42:39;;;;;;;;;;;;;;;10.10;60.82;100195.91;3309408;29;20008;-75
2021/09/06 01:44:21;;;;;;;;;;;;;;;10.08;60.85;100193.41;3287568;30;20417;-75
2021/09/06 01:46:02;;;;;;;;;;;;;;;10.07;60.89;100198.91;3297815;30;19936;-75
2021/09/06 01:47:45;;;;;;;;;;;;;;;10.07;60.83;100196.25;3299157;29;20009;-75
2021/09/06 01:49:26;;;;;;;;;;;;;;;10.05;60.90;100202.59;3300085;30;20306;-75
2021/09/06 01:51:06;;;;;;;;;;;;;;;10.04;60.98;100206.25;3299394;30;20338;-75
2021/09/06 01:52:47;;;;;;;;;;;;;;;10.02;61.25;100205.59;3303048;29;19930;-75
2021/09/06 01:54:28;;;;;;;;;;;;;;;10.01;60.96;100198.59;3319793;29;19929;-74
2021/09/06 01:56:08;;;;;;;;;;;;;;;10.00;61.02;100206.78;3311308;29;19929;-76
2021/09/06 01:57:49;;;;;;;;;;;;;;;9.97;61.12;100202.66;3321585;29;19928;-75
2021/09/06 01:59:34;;;;;;;;;;;;;;;9.92;61.23;100205.03;3308892;29;19951;-76
2021/09/06 02:01:14;;;;;;;;;;;;;;;9.88;61.41;100202.88;3299928;30;19929;-76
2021/09/06 02:02:55;;;;;;;;;;;;;;;9.81;61.66;100202.78;3299166;29;21173;-76
2021/09/06 02:04:44;;;;;;;;;;;;;;;9.77;61.79;100204.13;3311111;29;19975;-76
2021/09/06 02:06:25;;;;;;;;;;;;;;;9.75;61.88;100206.13;3299987;29;20520;-77
2021/09/06 02:08:13;;;;;;;;;;;;;;;9.74;61.71;100204.47;3299926;30;20317;-77
2021/09/06 02:09:54;;;;;;;;;;;;;;;9.75;61.80;100209.63;3299313;30;20432;-78
2021/09/06 02:11:35;;;;;;;;;;;;;;;9.76;61.75;100205.97;3296554;30;19929;-77
2021/09/06 02:13:16;;;;;;;;;;;;;;;9.77;61.86;100206.78;3308986;29;19932;-77
2021/09/06 02:14:57;;;;;;;;;;;;;;;9.77;61.89;100206.78;3302146;29;19967;-77
2021/09/06 02:16:37;;;;;;;;;;;;;;;9.77;61.95;100209.44;3300119;29;19929;-77
2021/09/06 02:18:26;;;;;;;;;;;;;;;9.78;61.73;100214.59;3299001;29;20333;-77
2021/09/06 02:20:09;;;;;;;;;;;;;;;9.80;61.74;100215.22;3309286;29;19929;-78
2021/09/06 02:21:50;;;;;;;;;;;;;;;9.81;61.83;100211.59;3311284;29;20039;-75
2021/09/06 02:23:31;;;;;;;;;;;;;;;9.80;61.90;100219.75;3276839;30;20374;-76
2021/09/06 02:25:13;;;;;;;;;;;;;;;9.78;61.86;100206.63;3306883;29;19928;-76
2021/09/06 02:26:54;;;;;;;;;;;;;;;9.78;61.88;100213.75;3298815;29;19930;-76
2021/09/06 02:28:34;;;;;;;;;;;;;;;9.76;61.90;100216.59;3296437;30;19936;-76
2021/09/06 02:30:17;;;;;;;;;;;;;;;9.74;62.08;100212.47;3309064;29;19921;-75
2021/09/06 02:31:58;;;;;;;;;;;;;;;9.70;62.24;100213.81;3298862;29;19929;-76
2021/09/06 02:33:55;;;;;;;;;;;;;;;9.66;62.56;100223.16;3298566;29;19922;-76
2021/09/06 02:35:47;;;;;;;;;;;;;;;9.63;62.66;100220.84;3310648;29;19929;-76
2021/09/06 02:37:27;;;;;;;;;;;;;;;9.59;62.64;100218.53;3302435;29;19929;-76
2021/09/06 02:39:08;;;;;;;;;;;;;;;9.59;62.75;100225.69;3300301;29;20437;-76
2021/09/06 02:40:49;;;;;;;;;;;;;;;9.57;62.58;100222.38;3286684;30;20024;-76
2021/09/06 02:42:30;;;;;;;;;;;;;;;9.56;62.84;100226.03;3306779;29;19929;-75
2021/09/06 02:44:13;;;;;;;;;;;;;;;9.55;62.92;100229.69;3299097;29;19937;-76
2021/09/06 02:45:53;;;;;;;;;;;;;;;9.53;62.95;100232.53;3317686;29;19921;-77
2021/09/06 02:47:34;;;;;;;;;;;;;;;9.52;63.00;100232.69;3314864;29;19929;-77
2021/09/06 02:49:14;;;;;;;;;;;;;;;9.48;63.11;100232.25;3311517;29;19962;-76
2021/09/06 02:50:56;;;;;;;;;;;;;;;9.45;63.02;100224.59;3309165;29;19929;-77
2021/09/06 02:52:38;;;;;;;;;;;;;;;9.45;63.11;100227.28;3309014;29;19929;-79
2021/09/06 02:54:21;;;;;;;;;;;;;;;9.43;63.18;100225.78;3320757;29;19935;-77
2021/09/06 02:56:02;;;;;;;;;;;;;;;9.41;63.28;100239.25;3296987;29;20378;-77
2021/09/06 02:57:47;;;;;;;;;;;;;;;9.42;63.23;100234.75;3319962;29;19993;-77
2021/09/06 02:59:28;;;;;;;;;;;;;;;9.43;63.08;100236.44;3323698;29;19932;-77
2021/09/06 03:01:10;;;;;;;;;;;;;;;9.45;63.10;100240.56;3323310;29;19956;-77
2021/09/06 03:02:51;;;;;;;;;;;;;;;9.48;62.95;100234.06;3311017;29;19937;-76
2021/09/06 03:04:31;;;;;;;;;;;;;;;9.51;62.97;100239.88;3308671;29;20341;-77
2021/09/06 03:06:13;;;;;;;;;;;;;;;9.52;63.14;100241.50;3319037;29;19967;-77
2021/09/06 03:07:53;;;;;;;;;;;;;;;9.53;63.14;100237.03;3314704;29;19929;-77
2021/09/06 03:09:36;;;;;;;;;;;;;;;9.49;63.14;100249.84;3311197;29;19921;-77
2021/09/06 03:11:23;;;;;;;;;;;;;;;9.46;63.33;100252.84;3320789;29;20023;-77
2021/09/06 03:13:04;;;;;;;;;;;;;;;9.42;63.42;100248.88;3311247;29;19921;-77
2021/09/06 03:14:44;;;;;;;;;;;;;;;9.43;63.42;100258.53;3311644;29;20009;-76
2021/09/06 03:16:25;;;;;;;;;;;;;;;9.45;63.42;100253.03;3314084;29;19929;-78
2021/09/06 03:18:15;;;;;;;;;;;;;;;9.46;63.44;100250.19;3314526;29;19921;-78
2021/09/06 03:20:28;;;;;;;;;;;;;;;9.48;63.32;100256.19;3296889;29;19989;-78
2021/09/06 03:22:09;;;;;;;;;;;;;;;9.46;63.32;100252.84;3301190;29;19929;-77
2021/09/06 03:23:49;;;;;;;;;;;;;;;9.45;63.33;100256.53;3301620;30;19929;-77
2021/09/06 03:25:32;;;;;;;;;;;;;;;9.47;63.50;100249.19;3301868;29;19933;-78
2021/09/06 03:27:13;;;;;;;;;;;;;;;9.48;63.60;100255.34;3298377;30;20006;-78
2021/09/06 03:28:54;;;;;;;;;;;;;;;9.49;63.37;100257.81;3301858;30;20275;-77
2021/09/06 03:30:36;;;;;;;;;;;;;;;9.51;63.12;100258.50;3289001;30;19980;-78
2021/09/06 03:32:17;;;;;;;;;;;;;;;9.54;63.12;100259.97;3312928;29;19929;-78
2021/09/06 03:33:58;;;;;;;;;;;;;;;9.55;63.42;100259.81;3300921;30;19933;-76
2021/09/06 03:35:39;;;;;;;;;;;;;;;9.56;63.18;100264.13;3298534;29;20020;-75
2021/09/06 03:37:22;;;;;;;;;;;;;;;9.60;63.15;100265.44;3322360;29;19932;-77
2021/09/06 03:39:03;;;;;;;;;;;;;;;9.64;63.24;100262.44;3315756;29;19929;-75
2021/09/06 03:40:47;;;;;;;;;;;;;;;9.66;63.05;100265.75;3325618;29;20026;-76
2021/09/06 03:42:29;;;;;;;;;;;;;;;9.66;63.12;100263.91;3315529;29;19933;-75
2021/09/06 03:44:10;;;;;;;;;;;;;;;9.69;63.09;100273.38;3323123;29;20031;-77
2021/09/06 03:45:51;;;;;;;;;;;;;;;9.69;63.18;100268.88;3313021;29;19930;-75
2021/09/06 03:47:32;;;;;;;;;;;;;;;9.70;63.06;100277.69;3308694;29;19936;-75
2021/09/06 03:49:15;;;;;;;;;;;;;;;9.72;63.08;100270.38;3323640;29;20027;-76
2021/09/06 03:50:58;;;;;;;;;;;;;;;9.74;62.94;100279.84;3313695;29;20072;-76
2021/09/06 03:52:39;;;;;;;;;;;;;;;9.78;62.82;100269.66;3324145;29;19928;-76
2021/09/06 03:54:22;;;;;;;;;;;;;;;9.82;62.86;100270.97;3313808;29;19929;-76
2021/09/06 03:56:03;;;;;;;;;;;;;;;9.88;62.81;100278.25;3314277;29;19929;-77
2021/09/06 03:57:50;;;;;;;;;;;;;;;9.93;62.71;100273.22;3311221;29;20341;-77
2021/09/06 03:59:32;;;;;;;;;;;;;;;9.96;62.52;100280.84;3311022;29;20345;-76
2021/09/06 04:01:12;;;;;;;;;;;;;;;9.99;62.72;100275.22;3314027;29;19972;-77
2021/09/06 04:02:54;;;;;;;;;;;;;;;10.03;62.57;100275.66;3313346;29;19929;-77
2021/09/06 04:04:40;;;;;;;;;;;;;;;10.08;62.45;100272.47;3311384;29;19933;-77
2021/09/06 04:06:20;;;;;;;;;;;;;;;10.09;62.46;100274.94;3314102;29;19929;-77
2021/09/06 04:08:03;;;;;;;;;;;;;;;10.09;62.45;100280.28;3311558;29;19998;-77
2021/09/06 04:09:44;;;;;;;;;;;;;;;10.13;62.50;100283.44;3322985;29;19929;-75
2021/09/06 04:11:24;;;;;;;;;;;;;;;10.14;62.64;100287.75;3316596;29;19935;-75
2021/09/06 04:13:05;;;;;;;;;;;;;;;10.19;62.39;100277.38;3312708;29;19929;-70
2021/09/06 04:14:45;;;;;;;;;;;;;;;10.23;62.51;100281.38;3313195;29;20449;-71
2021/09/06 04:16:26;;;;;;;;;;;;;;;10.27;62.29;100282.66;3309199;29;20052;-71
2021/09/06 04:18:07;;;;;;;;;;;;;;;10.33;62.13;100282.00;3308131;29;19936;-73
2021/09/06 04:19:48;;;;;;;;;;;;;;;10.39;62.07;100286.59;3306035;29;20278;-71
2021/09/06 04:21:29;;;;;;;;;;;;;;;10.46;62.19;100287.53;3310506;29;19963;-71
2021/09/06 04:23:09;;;;;;;;;;;;;;;10.50;61.95;100281.84;3298007;29;19930;-71
2021/09/06 04:24:50;;;;;;;;;;;;;;;10.54;61.86;100281.31;3309804;29;19933;-72
2021/09/06 04:26:31;;;;;;;;;;;;;;;10.61;61.79;100284.06;3312850;29;20274;-72
2021/09/06 04:28:12;;;;;;;;;;;;;;;10.65;61.57;100280.06;3309313;29;19934;-72
2021/09/06 04:29:53;;;;;;;;;;;;;;;10.67;61.58;100278.88;3322488;29;19977;-72
2021/09/06 04:31:33;;;;;;;;;;;;;;;10.71;61.57;100284.66;3314473;29;19929;-71
2021/09/06 04:33:14;;;;;;;;;;;;;;;10.73;61.52;100279.97;3309950;29;19929;-74
2021/09/06 04:34:54;;;;;;;;;;;;;;;10.80;61.36;100274.75;3324294;29;19929;-72
2021/09/06 04:36:37;;;;;;;;;;;;;;;10.84;61.30;100282.22;3312511;29;20001;-71
2021/09/06 04:38:17;;;;;;;;;;;;;;;10.89;61.17;100287.84;3309149;29;20040;-73
2021/09/06 04:39:58;;;;;;;;;;;;;;;10.93;61.15;100288.28;3313158;29;19983;-71
2021/09/06 04:41:39;;;;;;;;;;;;;;;10.97;61.12;100286.06;3313927;29;19933;-73
2021/09/06 04:43:19;;;;;;;;;;;;;;;10.99;60.91;100284.06;3325021;29;19932;-75
2021/09/06 04:45:00;;;;;;;;;;;;;;;11.05;60.88;100286.03;3325229;29;20117;-73
2021/09/06 04:46:41;;;;;;;;;;;;;;;11.08;60.82;100293.66;3325218;29;19929;-75
2021/09/06 04:48:23;;;;;;;;;;;;;;;11.08;60.79;100285.66;3314862;29;19935;-75
2021/09/06 04:50:04;;;;;;;;;;;;;;;11.08;60.73;100285.66;3323756;29;19977;-76
2021/09/06 04:51:46;;;;;;;;;;;;;;;11.11;60.56;100290.59;3290216;30;19930;-77
2021/09/06 04:53:30;;;;;;;;;;;;;;;11.16;60.50;100280.22;3314998;29;20440;-76
2021/09/06 04:55:12;;;;;;;;;;;;;;;11.17;60.60;100284.53;3302720;29;19944;-76
2021/09/06 04:56:55;;;;;;;;;;;;;;;11.22;60.45;100278.66;3297554;29;20028;-75
2021/09/06 04:58:36;;;;;;;;;;;;;;;11.30;60.30;100289.22;3309710;29;20309;-76
2021/09/06 05:00:17;;;;;;;;;;;;;;;11.39;60.21;100284.63;3291264;29;19929;-79
2021/09/06 05:01:59;;;;;;;;;;;;;;;11.42;60.09;100290.44;3308898;29;19929;-79
2021/09/06 05:03:39;;;;;;;;;;;;;;;11.43;60.05;100288.56;3300454;29;19930;-79
2021/09/06 05:05:22;;;;;;;;;;;;;;;11.47;59.91;100290.69;3318225;29;19963;-78
2021/09/06 05:07:03;;;;;;;;;;;;;;;11.50;59.85;100286.81;3321859;29;19941;-79
2021/09/06 05:08:44;;;;;;;;;;;;;;;11.51;59.82;100291.13;3306706;29;20523;-78
2021/09/06 05:10:25;;;;;;;;;;;;;;;11.55;59.64;100292.44;3305977;29;19971;-78
2021/09/06 05:12:06;;;;;;;;;;;;;;;11.63;59.54;100292.34;3313073;29;19925;-80
2021/09/06 05:13:50;;;;;;;;;;;;;;;11.72;59.37;100293.03;3312088;29;20420;-72
2021/09/06 05:15:31;;;;;;;;;;;;;;;11.80;59.29;100295.63;3309665;29;19925;-72
2021/09/06 05:17:12;;;;;;;;;;;;;;;11.88;59.07;100302.75;3312352;29;19936;-72
2021/09/06 05:18:54;;;;;;;;;;;;;;;11.96;58.99;100297.28;3311923;29;20008;-71
2021/09/06 05:20:34;;;;;;;;;;;;;;;12.05;58.77;100298.78;3320445;29;19937;-71
2021/09/06 05:22:16;;;;;;;;;;;;;;;12.14;58.65;100296.84;3325035;29;19925;-73
2021/09/06 05:23:58;;;;;;;;;;;;;;;12.18;58.60;100292.75;3312004;29;19936;-71
2021/09/06 05:25:40;;;;;;;;;;;;;;;12.25;58.44;100300.88;3322037;29;20020;-71
2021/09/06 05:27:21;;;;;;;;;;;;;;;12.33;58.41;100295.38;3319140;29;19936;-72
2021/09/06 05:29:02;;;;;;;;;;;;;;;12.39;58.26;100292.78;3309501;29;19929;-75
2021/09/06 05:30:43;;;;;;;;;;;;;;;12.43;58.12;100295.91;3321128;29;19951;-75
2021/09/06 05:32:25;;;;;;;;;;;;;;;12.46;57.97;100290.16;3313934;29;20283;-74
2021/09/06 05:34:05;;;;;;;;;;;;;;;12.51;58.00;100295.75;3324507;29;20062;-75
2021/09/06 05:35:46;;;;;;;;;;;;;;;12.56;58.04;100301.34;3314054;29;19929;-74
2021/09/06 05:37:27;;;;;;;;;;;;;;;12.64;58.32;100298.53;3324451;29;20001;-74
2021/09/06 05:39:09;;;;;;;;;;;;;;;12.76;58.58;100300.72;3313723;29;19985;-74
2021/09/06 05:40:57;;;;;;;;;;;;;;;12.93;59.17;100301.22;3295673;30;20027;-75
2021/09/06 05:42:38;;;;;;;;;;;;;;;13.10;59.08;100307.94;3306173;29;19928;-74
2021/09/06 05:44:19;;;;;;;;;;;;;;;13.26;58.93;100302.31;3312567;29;19929;-72
2021/09/06 05:46:02;;;;;;;;;;;;;;;13.42;58.88;100305.69;3299250;29;19937;-72
2021/09/06 05:47:42;;;;;;;;;;;;;;;13.62;58.91;100308.47;3308833;29;20027;-73
2021/09/06 05:49:26;;;;;;;;;;;;;;;13.85;58.79;100311.66;3306716;29;19929;-72
2021/09/06 05:51:11;;;;;;;;;;;;;;;14.11;58.25;100308.22;3311686;29;19929;-74
2021/09/06 05:53:03;;;;;;;;;;;;;;;14.37;57.76;100314.69;3312011;29;20012;-74
2021/09/06 05:54:44;;;;;;;;;;;;;;;14.59;57.45;100307.31;3309034;29;19966;-72
2021/09/06 05:56:28;;;;;;;;;;;;;;;14.82;56.78;100302.38;3307429;29;19985;-72
2021/09/06 05:58:13;;;;;;;;;;;;;;;15.02;55.10;100309.56;3324856;29;20052;-71
2021/09/06 05:59:53;;;;;;;;;;;;;;;15.19;54.27;100313.47;3304339;29;20016;-72
2021/09/06 06:01:34;;;;;;;;;;;;;;;15.36;55.06;100318.38;3323429;29;20067;-71
2021/09/06 06:03:15;;;;;;;;;;;;;;;15.54;54.70;100321.25;3301301;29;19929;-71
2021/09/06 06:04:57;;;;;;;;;;;;;;;15.75;54.04;100322.00;3296201;29;19930;-73
2021/09/06 06:06:38;;;;;;;;;;;;;;;15.93;53.41;100314.09;3308878;29;20007;-73
2021/09/06 06:08:20;;;;;;;;;;;;;;;16.08;52.49;100320.03;3313809;29;19929;-73
2021/09/06 06:10:02;;;;;;;;;;;;;;;16.22;52.93;100328.81;3310679;29;19921;-72
2021/09/06 06:11:45;;;;;;;;;;;;;;;16.41;52.66;100337.81;3311534;29;19929;-72
2021/09/06 06:13:33;;;;;;;;;;;;;;;16.60;52.22;100327.13;3311841;29;20026;-73
2021/09/06 06:15:14;;;;;;;;;;;;;;;16.74;51.79;100332.19;3310400;29;19921;-72
2021/09/06 06:16:55;;;;;;;;;;;;;;;16.88;51.70;100332.09;3307956;29;20020;-74
2021/09/06 06:18:40;;;;;;;;;;;;;;;16.99;51.15;100334.94;3311223;29;19978;-72
2021/09/06 06:20:26;;;;;;;;;;;;;;;17.12;50.71;100327.78;3333776;29;20048;-72
2021/09/06 06:22:07;;;;;;;;;;;;;;;17.29;50.75;100328.81;3315764;29;20422;-73
2021/09/06 06:24:07;;;;;;;;;;;;;;;17.58;50.05;100323.75;3321792;29;19933;-72
2021/09/06 06:26:00;;;;;;;;;;;;;;;17.92;49.16;100322.34;3321150;29;20020;-71
2021/09/06 06:27:42;;;;;;;;;;;;;;;18.24;49.38;100325.63;3319960;29;19935;-71
2021/09/06 06:29:27;;;;;;;;;;;;;;;18.57;49.11;100321.63;3323209;29;20001;-72
2021/09/06 06:31:08;;;;;;;;;;;;;;;18.92;48.84;100324.41;3300117;29;20503;-71
2021/09/06 06:32:53;;;;;;;;;;;;;;;19.23;48.13;100321.56;3309989;29;19929;-74
2021/09/06 06:34:43;;;;;;;;;;;;;;;19.49;48.57;100320.25;3300320;29;20425;-72
2021/09/06 06:36:24;;;;;;;;;;;;;;;19.72;48.71;100322.13;3312723;29;20031;-73
2021/09/06 06:38:05;;;;;;;;;;;;;;;19.96;47.50;100318.28;3306520;29;19936;-72
2021/09/06 06:39:48;;;;;;;;;;;;;;;20.19;47.69;100314.66;3305117;29;19956;-73
2021/09/06 06:41:30;;;;;;;;;;;;;;;20.44;47.58;100325.09;3309058;29;19954;-71
2021/09/06 06:43:18;;;;;;;;;;;;;;;20.76;46.61;100321.91;3323161;29;19932;-72
2021/09/06 06:45:01;;;;;;;;;;;;;;;21.04;46.10;100322.84;3313840;29;20020;-72
2021/09/06 06:46:46;;;;;;;;;;;;;;;21.32;45.10;100320.03;3312171;29;20501;-73
2021/09/06 06:48:27;;;;;;;;;;;;;;;21.54;44.34;100316.53;3323929;29;19928;-73
2021/09/06 06:50:09;;;;;;;;;;;;;;;21.71;44.34;100325.44;3311283;29;20475;-74
2021/09/06 06:51:52;;;;;;;;;;;;;;;21.87;43.47;100322.94;3311361;29;19929;-75
2021/09/06 06:53:33;;;;;;;;;;;;;;;21.99;43.43;100320.88;3314192;29;20420;-75
2021/09/06 06:55:13;;;;;;;;;;;;;;;22.09;43.05;100322.88;3314556;29;19929;-74
2021/09/06 06:56:54;;;;;;;;;;;;;;;22.17;43.20;100322.41;3313585;29;20056;-75
2021/09/06 06:58:34;;;;;;;;;;;;;;;22.09;42.71;100325.59;3310768;29;20024;-74
2021/09/06 07:00:20;;;;;;;;;;;;;;;22.11;42.72;100326.97;3313698;29;19928;-74
2021/09/06 07:02:01;;;;;;;;;;;;;;;21.97;41.69;100323.84;3312591;29;20084;-75
2021/09/06 07:03:42;;;;;;;;;;;;;;;21.85;42.90;100325.06;3301525;29;19934;-74
2021/09/06 07:05:23;;;;;;;;;;;;;;;21.66;41.48;100332.69;3301913;29;20405;-73
2021/09/06 07:07:04;;;;;;;;;;;;;;;21.55;42.36;100331.75;3336136;29;19935;-76
2021/09/06 07:08:45;;;;;;;;;;;;;;;21.37;41.69;100326.59;3315795;29;19937;-76
2021/09/06 07:10:26;;;;;;;;;;;;;;;21.14;42.62;100325.72;3325493;29;20406;-76
2021/09/06 07:12:09;;;;;;;;;;;;;;;21.08;43.44;100327.53;3325856;29;19932;-72
2021/09/06 07:13:50;;;;;;;;;;;;;;;21.02;43.58;100330.44;3313378;29;20409;-76
2021/09/06 07:15:34;;;;;;;;;;;;;;;21.08;43.86;100332.97;3311419;29;20316;-75
2021/09/06 07:17:18;;;;;;;;;;;;;;;21.02;43.47;100333.16;3314450;29;20398;-76
2021/09/06 07:18:59;;;;;;;;;;;;;;;21.06;42.87;100334.28;3335591;29;19949;-78
2021/09/06 07:20:40;;;;;;;;;;;;;;;20.97;43.09;100333.88;3315587;29;19954;-77
2021/09/06 07:22:22;;;;;;;;;;;;;;;20.81;42.71;100338.25;3298152;30;19929;-77
2021/09/06 07:24:03;;;;;;;;;;;;;;;20.64;43.03;100327.38;3301530;29;20401;-74
2021/09/06 07:25:44;;;;;;;;;;;;;;;20.44;43.02;100327.00;3309739;29;19929;-74
2021/09/06 07:27:27;;;;;;;;;;;;;;;20.19;42.73;100320.09;3310283;29;19928;-74
2021/09/06 07:29:07;;;;;;;;;;;;;;;19.98;42.84;100324.28;3310321;29;19936;-73
2021/09/06 07:30:48;;;;;;;;;;;;;;;19.85;43.59;100327.25;3323037;29;20360;-74
2021/09/06 07:32:29;;;;;;;;;;;;;;;19.82;43.22;100328.56;3325558;29;19972;-74
2021/09/06 07:34:09;;;;;;;;;;;;;;;19.82;43.31;100325.03;3313135;29;20405;-74
2021/09/06 07:35:51;;;;;;;;;;;;;;;19.78;43.84;100323.88;3313568;29;20032;-74
2021/09/06 07:37:33;;;;;;;;;;;;;;;19.74;43.71;100322.69;3312966;29;19929;-75
2021/09/06 07:39:16;;;;;;;;;;;;;;;19.85;43.23;100323.72;3313899;29;20305;-74
2021/09/06 07:40:57;;;;;;;;;;;;;;;20.01;43.56;100329.22;3325517;29;20005;-73
2021/09/06 07:42:38;;;;;;;;;;;;;;;20.07;43.48;100321.19;3313073;29;20115;-73
2021/09/06 07:44:18;;;;;;;;;;;;;;;20.00;43.38;100327.56;3322683;29;19928;-75
2021/09/06 07:46:00;;;;;;;;;;;;;;;19.83;43.12;100315.88;3313022;29;20286;-74
2021/09/06 07:47:41;;;;;;;;;;;;;;;19.63;42.59;100326.25;3310668;29;19936;-74
2021/09/06 07:49:21;;;;;;;;;;;;;;;19.39;43.04;100326.28;3322788;29;20023;-73
2021/09/06 07:51:02;;;;;;;;;;;;;;;19.22;43.20;100330.75;3325440;29;19985;-74
2021/09/06 07:52:43;;;;;;;;;;;;;;;19.06;42.50;100330.41;3316400;29;20002;-74
2021/09/06 07:54:26;;;;;;;;;;;;;;;18.90;42.89;100340.03;3313902;29;20378;-73
2021/09/06 07:56:09;;;;;;;;;;;;;;;18.80;43.33;100326.28;3325220;29;19928;-74
2021/09/06 07:57:49;;;;;;;;;;;;;;;18.73;43.37;100328.22;3325390;29;19928;-75
2021/09/06 07:59:30;;;;;;;;;;;;;;;18.68;42.96;100325.41;3312738;29;19933;-74
2021/09/06 08:01:10;;;;;;;;;;;;;;;18.53;41.44;100326.69;3313238;29;20419;-74
2021/09/06 08:02:52;;;;;;;;;;;;;;;18.38;42.58;100336.22;3325276;29;20393;-74
2021/09/06 08:04:37;;;;;;;;;;;;;;;18.29;42.77;100333.84;3325048;29;20043;-74
2021/09/06 08:06:18;;;;;;;;;;;;;;;18.36;42.53;100324.88;3312558;29;20025;-73
2021/09/06 08:07:59;;;;;;;;;;;;;;;18.66;42.52;100328.31;3310224;29;19928;-74
2021/09/06 08:09:40;;;;;;;;;;;;;;;19.18;42.36;100325.81;3310232;29;20075;-74
2021/09/06 08:11:22;;;;;;;;;;;;;;;19.77;41.42;100330.34;3322603;29;19929;-74
2021/09/06 08:13:02;;;;;;;;;;;;;;;20.32;40.41;100335.19;3312704;29;20396;-74
2021/09/06 08:14:45;;;;;;;;;;;;;;;20.79;39.85;100340.38;3310233;29;19982;-74
2021/09/06 08:16:25;;;;;;;;;;;;;;;21.18;38.24;100329.59;3322556;29;20031;-73
2021/09/06 08:18:06;;;;;;;;;;;;;;;21.42;38.83;100332.09;3316002;29;20368;-75
2021/09/06 08:19:55;;;;;;;;;;;;;;;21.76;38.79;100327.38;3313287;29;19929;-75
2021/09/06 08:21:35;;;;;;;;;;;;;;;22.06;38.33;100336.97;3312308;29;20294;-74
2021/09/06 08:23:16;;;;;;;;;;;;;;;22.34;37.78;100330.50;3312676;29;19929;-75
2021/09/06 08:25:00;;;;;;;;;;;;;;;22.63;37.32;100326.41;3322703;29;19928;-75
2021/09/06 08:26:41;;;;;;;;;;;;;;;22.97;37.24;100328.06;3312928;29;19933;-74
2021/09/06 08:28:23;;;;;;;;;;;;;;;23.27;36.75;100341.06;3311247;29;19933;-74
2021/09/06 08:30:04;;;;;;;;;;;;;;;23.47;35.43;100341.19;3309417;29;19929;-74
2021/09/06 08:31:46;;;;;;;;;;;;;;;23.58;35.44;100328.44;3322696;29;19985;-74
2021/09/06 08:33:27;;;;;;;;;;;;;;;23.70;35.70;100328.22;3312573;29;20386;-75
2021/09/06 08:35:10;;;;;;;;;;;;;;;23.60;34.98;100329.00;3310386;29;19961;-74
2021/09/06 08:36:52;;;;;;;;;;;;;;;23.35;34.34;100332.41;3309969;29;19929;-74
2021/09/06 08:38:33;;;;;;;;;;;;;;;23.03;34.66;100337.91;3312911;29;19929;-75
2021/09/06 08:40:18;;;;;;;;;;;;;;;22.64;35.21;100329.97;3324599;29;19960;-75
2021/09/06 08:42:00;;;;;;;;;;;;;;;22.30;36.32;100332.09;3324577;29;20424;-75
2021/09/06 08:43:41;;;;;;;;;;;;;;;21.93;35.31;100321.91;3324978;29;19951;-75
2021/09/06 08:45:28;;;;;;;;;;;;;;;21.63;36.04;100330.47;3312339;29;19929;-74
2021/09/06 08:47:09;;;;;;;;;;;;;;;21.41;35.69;100325.88;3322002;29;19929;-73